Time;durP1;ratioP1;P1;durP2;ratioP2;P2;SDS_P1;SDS_P2;PMS_P1;PMS_P2;Temp;Humidity;BMP_temperature;BMP_pressure;BME280_temperature;BME280_humidity;BME280_pressure;Samples;Min_cycle;Max_cycle;Signal;HPM_P1;HPM_P2
2022/06/11 00:02:22;;;;;;;6.43;4.30;;;;;;;18.94;65.49;102027.94;5096782;28;20045;-65
2022/06/11 00:04:47;;;;;;;9.88;4.65;;;;;;;18.98;65.62;102038.38;5103303;28;20487;-65
2022/06/11 00:07:21;;;;;;;9.05;4.63;;;;;;;18.99;65.46;102033.59;5102939;28;20053;-65
2022/06/11 00:09:47;;;;;;;11.25;4.47;;;;;;;18.92;65.32;102024.59;5097942;28;20012;-65
2022/06/11 00:12:13;;;;;;;8.85;4.57;;;;;;;18.93;65.38;102031.88;5088823;28;20082;-65
2022/06/11 00:14:39;;;;;;;6.28;4.60;;;;;;;18.91;65.27;102034.16;5104035;28;20059;-64
2022/06/11 00:17:08;;;;;;;7.25;3.95;;;;;;;18.93;65.29;102035.53;5103045;27;20028;-64
2022/06/11 00:19:36;;;;;;;7.63;4.25;;;;;;;18.89;65.25;102029.63;5103504;28;20024;-64
2022/06/11 00:22:03;;;;;;;6.25;3.50;;;;;;;18.92;65.21;102033.84;5104377;28;20470;-64
2022/06/11 00:24:28;;;;;;;9.68;4.32;;;;;;;18.90;65.13;102030.47;5091408;28;20031;-64
2022/06/11 00:26:55;;;;;;;6.72;4.47;;;;;;;18.87;65.16;102036.69;5112145;28;20126;-64
2022/06/11 00:29:24;;;;;;;6.45;3.88;;;;;;;18.77;65.31;102026.25;5097483;28;20036;-64
2022/06/11 00:31:50;;;;;;;8.27;3.92;;;;;;;18.72;65.53;102026.25;5101846;28;20062;-64
2022/06/11 00:34:16;;;;;;;9.30;4.82;;;;;;;18.77;65.15;102022.59;5095804;27;20058;-64
2022/06/11 00:36:43;;;;;;;9.43;4.03;;;;;;;18.75;65.60;102022.88;5093263;28;20081;-64
2022/06/11 00:39:10;;;;;;;5.40;3.80;;;;;;;18.76;65.49;102030.19;5111893;28;20016;-65
2022/06/11 00:41:38;;;;;;;5.80;3.70;;;;;;;18.65;65.79;102029.28;5096913;28;20035;-65
2022/06/11 00:44:07;;;;;;;7.88;4.18;;;;;;;18.65;65.52;102032.09;5094391;28;20025;-66
2022/06/11 00:46:39;;;;;;;7.85;4.00;;;;;;;18.65;65.78;102025.63;5107344;28;20024;-65
2022/06/11 00:49:30;;;;;;;9.80;4.53;;;;;;;18.60;65.65;102026.47;5089223;28;20128;-66
2022/06/11 00:52:10;;;;;;;7.85;3.85;;;;;;;18.65;65.48;102023.66;5106790;28;20051;-65
2022/06/11 00:54:41;;;;;;;9.02;4.53;;;;;;;18.60;65.90;102020.03;5079610;28;20110;-68
2022/06/11 00:57:08;;;;;;;7.07;4.78;;;;;;;18.55;66.01;102014.38;5101523;28;20034;-65
2022/06/11 00:59:40;;;;;;;8.05;4.63;;;;;;;18.54;66.05;102023.94;5098617;28;20028;-65
2022/06/11 01:02:06;;;;;;;9.57;4.22;;;;;;;18.53;65.94;102025.06;5109050;28;20034;-65
2022/06/11 01:04:49;;;;;;;8.43;4.40;;;;;;;18.55;66.05;102020.00;5096347;28;20126;-65
2022/06/11 01:07:43;;;;;;;7.93;4.75;;;;;;;18.53;65.97;102025.06;5103244;28;20036;-65
2022/06/11 01:10:20;;;;;;;5.57;4.18;;;;;;;18.50;66.22;102018.03;5106295;28;20032;-65
2022/06/11 01:12:59;;;;;;;9.30;4.47;;;;;;;18.43;66.25;102019.41;5098070;28;20039;-65
2022/06/11 01:15:31;;;;;;;6.40;4.50;;;;;;;18.32;66.56;102012.94;5094806;28;20032;-65
2022/06/11 01:18:40;;;;;;;6.75;4.28;;;;;;;18.44;66.22;102012.69;5107880;28;20058;-65
2022/06/11 01:21:29;;;;;;;5.70;4.65;;;;;;;18.42;66.30;102014.91;5088589;28;20065;-65
2022/06/11 01:24:11;;;;;;;10.10;4.70;;;;;;;18.33;66.61;102021.09;5091068;28;20032;-63
2022/06/11 01:26:53;;;;;;;;;;;;;;;18.55;65.56;102014.38;5086738;28;20031;-65
2022/06/11 01:29:40;;;;;;;7.65;5.00;;;;;;;18.37;66.50;102016.59;5099630;28;20361;-65
2022/06/11 01:32:32;;;;;;;8.90;4.60;;;;;;;18.33;66.58;102018.28;5105405;28;20473;-65
2022/06/11 01:35:25;;;;;;;7.72;5.03;;;;;;;18.31;66.64;102009.28;5083017;28;20031;-65
2022/06/11 01:38:02;;;;;;;8.60;4.93;;;;;;;18.25;67.02;101999.13;5102136;28;20067;-65
2022/06/11 01:40:39;;;;;;;9.32;5.00;;;;;;;18.26;67.04;102011.22;5079014;28;20028;-65
2022/06/11 01:43:17;;;;;;;6.97;5.10;;;;;;;18.27;67.12;102008.13;5101601;28;20055;-65
2022/06/11 01:45:43;;;;;;;10.07;5.35;;;;;;;18.22;67.19;102008.13;5088172;28;20091;-65
2022/06/11 01:48:16;;;;;;;6.43;4.70;;;;;;;18.27;66.92;102008.13;5091742;28;20028;-65
2022/06/11 01:50:50;;;;;;;10.20;5.05;;;;;;;18.22;67.02;102005.31;5109535;28;20066;-65
2022/06/11 01:53:34;;;;;;;7.28;4.57;;;;;;;18.23;67.05;102003.34;5104310;28;20055;-65
2022/06/11 01:56:11;;;;;;;9.82;4.97;;;;;;;18.22;67.07;101998.84;5095519;28;20035;-65
2022/06/11 01:58:59;;;;;;;7.68;4.70;;;;;;;18.18;66.73;101998.56;5081055;28;20049;-65
2022/06/11 02:01:36;;;;;;;7.28;4.93;;;;;;;18.19;67.07;101999.38;5097970;28;20531;-65
2022/06/11 02:04:14;;;;;;;6.95;4.53;;;;;;;18.09;67.60;102001.06;5103768;28;20044;-64
2022/06/11 02:06:49;;;;;;;7.75;4.97;;;;;;;18.17;67.02;102001.66;5096633;28;20035;-65
2022/06/11 02:09:42;;;;;;;7.45;4.90;;;;;;;18.11;66.94;102003.59;5100890;28;20032;-65
2022/06/11 02:12:28;;;;;;;6.70;4.38;;;;;;;18.09;67.06;102009.50;5104524;28;20428;-64
2022/06/11 02:15:11;;;;;;;6.85;4.30;;;;;;;18.10;67.07;102005.56;5101131;28;20042;-64
2022/06/11 02:17:41;;;;;;;7.57;4.80;;;;;;;18.02;67.27;102006.09;5104685;28;20535;-65
2022/06/11 02:20:13;;;;;;;8.45;4.70;;;;;;;18.01;67.04;102003.56;5110224;28;20110;-64
2022/06/11 02:22:44;;;;;;;9.05;4.55;;;;;;;18.01;67.28;102006.38;5099616;28;20024;-65
2022/06/11 02:25:17;;;;;;;6.97;4.65;;;;;;;17.97;67.13;102008.03;5101082;28;20133;-65
2022/06/11 02:27:47;;;;;;;9.05;4.55;;;;;;;17.95;67.04;102015.88;5105282;28;20563;-64
2022/06/11 02:30:17;;;;;;;7.47;4.38;;;;;;;17.93;67.08;102016.19;5101862;28;20731;-64
2022/06/11 02:32:43;;;;;;;7.50;4.50;;;;;;;17.91;67.16;102022.03;5104368;28;20112;-65
2022/06/11 02:35:13;;;;;;;5.88;4.63;;;;;;;17.93;67.23;102013.38;5097164;28;20020;-64
2022/06/11 02:37:43;;;;;;;6.68;3.83;;;;;;;17.96;67.16;102017.56;5101345;28;20417;-65
2022/06/11 02:40:17;;;;;;;7.20;4.35;;;;;;;17.91;66.92;102024.84;5094271;28;20028;-65
2022/06/11 02:42:45;;;;;;;7.35;4.43;;;;;;;17.87;66.99;102020.06;5097883;28;20034;-65
2022/06/11 02:45:12;;;;;;;5.82;4.30;;;;;;;17.90;66.90;102023.16;5104143;27;20123;-64
2022/06/11 02:47:42;;;;;;;6.63;4.18;;;;;;;17.84;67.14;102026.22;5088162;28;20059;-64
2022/06/11 02:50:08;;;;;;;8.45;4.00;;;;;;;17.84;66.92;102029.91;5108867;28;20023;-64
2022/06/11 02:52:34;;;;;;;8.32;4.53;;;;;;;17.84;66.90;102021.47;5091257;28;20056;-64
2022/06/11 02:55:00;;;;;;;6.78;4.10;;;;;;;17.77;67.15;102020.88;5113431;28;20046;-64
2022/06/11 02:57:29;;;;;;;8.95;4.18;;;;;;;17.76;67.07;102029.56;5102142;28;20028;-64
2022/06/11 02:59:56;;;;;;;7.22;4.05;;;;;;;17.73;67.15;102030.09;5104908;28;20498;-63
2022/06/11 03:02:23;;;;;;;5.68;4.28;;;;;;;17.73;67.14;102030.94;5094980;28;20023;-64
2022/06/11 03:04:49;;;;;;;7.70;4.30;;;;;;;17.75;67.31;102034.31;5107396;28;20058;-64
2022/06/11 03:07:15;;;;;;;6.70;4.03;;;;;;;17.74;67.20;102041.03;5100578;28;20028;-64
2022/06/11 03:09:41;;;;;;;11.30;4.00;;;;;;;17.69;67.29;102028.94;5108086;28;20098;-64
2022/06/11 03:12:09;;;;;;;5.85;4.15;;;;;;;17.67;67.40;102044.09;5095763;28;20115;-64
2022/06/11 03:14:35;;;;;;;6.03;4.30;;;;;;;17.65;67.36;102037.91;5111451;28;20071;-64
2022/06/11 03:17:00;;;;;;;5.43;3.78;;;;;;;17.68;67.59;102044.91;5097519;28;20068;-65
2022/06/11 03:19:25;;;;;;;6.00;4.00;;;;;;;17.69;67.74;102049.44;5100076;28;20035;-64
2022/06/11 03:21:55;;;;;;;8.18;3.95;;;;;;;17.67;67.63;102055.31;5108895;28;20102;-64
2022/06/11 03:24:25;;;;;;;7.35;4.30;;;;;;;17.68;67.99;102050.53;5091873;28;20031;-64
2022/06/11 03:26:51;;;;;;;5.95;4.25;;;;;;;17.67;68.08;102060.94;5079696;28;20031;-64
2022/06/11 03:29:18;;;;;;;5.70;4.10;;;;;;;17.66;67.91;102055.59;5103662;28;20026;-64
2022/06/11 03:31:47;;;;;;;6.43;4.15;;;;;;;17.66;67.99;102052.78;5099240;28;20020;-64
2022/06/11 03:34:13;;;;;;;9.23;4.32;;;;;;;17.65;68.03;102054.75;5109595;28;20020;-64
2022/06/11 03:36:40;;;;;;;8.43;4.50;;;;;;;17.69;68.00;102057.88;5093593;28;20350;-64
2022/06/11 03:39:05;;;;;;;5.60;4.20;;;;;;;17.65;68.12;102056.72;5103252;28;20031;-64
2022/06/11 03:41:33;;;;;;;7.15;4.30;;;;;;;17.67;68.05;102068.50;5095886;28;20051;-64
2022/06/11 03:43:59;;;;;;;6.88;3.92;;;;;;;17.69;68.09;102060.69;5109802;28;20523;-64
2022/06/11 03:46:24;;;;;;;5.75;4.68;;;;;;;17.67;68.07;102074.13;5096744;28;20154;-64
2022/06/11 03:48:51;;;;;;;6.20;4.03;;;;;;;17.72;68.27;102068.53;5102877;28;20343;-64
2022/06/11 03:51:20;;;;;;;8.00;4.10;;;;;;;17.66;68.08;102078.06;5103499;28;20352;-64
2022/06/11 03:53:46;;;;;;;5.95;4.03;;;;;;;17.72;68.13;102081.72;5098354;28;20024;-64
2022/06/11 03:56:13;;;;;;;7.57;4.40;;;;;;;17.71;68.37;102086.50;5109350;28;20043;-64
2022/06/11 03:58:39;;;;;;;6.57;3.92;;;;;;;17.73;68.27;102091.88;5096475;28;20028;-64
2022/06/11 04:01:18;;;;;;;6.70;3.92;;;;;;;17.75;68.00;102096.09;5103656;28;20024;-64
2022/06/11 04:03:51;;;;;;;8.98;3.65;;;;;;;17.74;67.96;102094.41;5097291;28;20043;-64
2022/06/11 04:06:20;;;;;;;5.95;3.88;;;;;;;17.72;68.12;102093.81;5109317;28;20066;-64
2022/06/11 04:08:46;;;;;;;9.73;4.13;;;;;;;17.73;68.17;102089.91;5098956;28;20028;-64
2022/06/11 04:11:12;;;;;;;5.32;3.85;;;;;;;17.71;68.22;102094.09;5099163;28;20031;-64
2022/06/11 04:13:40;;;;;;;7.30;3.63;;;;;;;17.79;67.92;102102.88;5107531;28;20023;-64
2022/06/11 04:16:07;;;;;;;5.88;3.38;;;;;;;17.75;67.82;102109.31;5111406;28;20687;-64
2022/06/11 04:18:37;;;;;;;5.43;3.40;;;;;;;17.71;67.81;102100.53;5092029;28;21966;-64
2022/06/11 04:21:05;;;;;;;7.07;3.25;;;;;;;17.78;67.61;102103.16;5097303;28;20066;-64
2022/06/11 04:23:31;;;;;;;6.97;3.92;;;;;;;17.75;67.75;102109.31;5101828;28;20028;-65
2022/06/11 04:25:59;;;;;;;4.95;3.38;;;;;;;17.74;67.92;102108.44;5076447;28;20047;-65
2022/06/11 04:28:28;;;;;;;8.43;3.50;;;;;;;17.76;67.77;102105.38;5108914;28;20019;-65
2022/06/11 04:30:54;;;;;;;4.43;3.50;;;;;;;17.78;67.54;102111.59;5088901;28;20082;-65
2022/06/11 04:33:20;;;;;;;6.85;3.63;;;;;;;17.79;67.65;102119.72;5097687;28;20028;-66
2022/06/11 04:35:45;;;;;;;5.82;3.28;;;;;;;17.75;67.70;102118.56;5100699;28;20471;-64
2022/06/11 04:38:12;;;;;;;5.10;3.58;;;;;;;17.81;67.71;102116.66;5089882;28;20426;-64
2022/06/11 04:40:37;;;;;;;6.28;3.97;;;;;;;17.75;67.70;102117.72;5107341;28;20032;-64
2022/06/11 04:43:03;;;;;;;6.57;3.88;;;;;;;17.75;68.21;102118.56;5100890;28;20065;-65
2022/06/11 04:45:28;;;;;;;8.18;3.63;;;;;;;17.72;67.92;102116.28;5088677;27;20461;-64
2022/06/11 04:47:54;;;;;;;6.20;3.70;;;;;;;17.80;67.82;102123.38;5103549;28;20106;-64
2022/06/11 04:50:19;;;;;;;9.38;3.58;;;;;;;17.79;68.04;102121.69;5091321;28;20028;-64
2022/06/11 04:52:45;;;;;;;7.47;4.18;;;;;;;17.79;68.00;102124.50;5083173;28;20028;-64
2022/06/11 04:55:11;;;;;;;5.65;3.97;;;;;;;17.75;67.57;102117.72;5105069;28;20114;-65
2022/06/11 04:57:37;;;;;;;9.00;4.00;;;;;;;17.80;67.61;102127.06;5111431;28;20351;-65
2022/06/11 05:00:26;;;;;;;6.63;4.00;;;;;;;17.88;66.91;102129.34;5088129;28;20029;-64
2022/06/11 05:02:51;;;;;;;7.47;3.67;;;;;;;17.84;66.27;102121.72;5091274;28;21499;-65
2022/06/11 05:05:17;;;;;;;6.45;3.47;;;;;;;17.83;66.22;102129.28;5099674;28;20057;-64
2022/06/11 05:07:43;;;;;;;9.98;3.95;;;;;;;17.83;66.02;102123.69;5093583;28;20467;-64
2022/06/11 05:10:12;;;;;;;6.57;3.60;;;;;;;17.88;66.07;102129.34;5108295;28;20023;-65
2022/06/11 05:12:37;;;;;;;7.70;4.03;;;;;;;17.86;65.75;102122.31;5093244;28;20063;-65
2022/06/11 05:15:03;;;;;;;8.77;3.38;;;;;;;17.84;65.27;102125.41;5084556;28;20433;-65
2022/06/11 05:17:28;;;;;;;8.05;4.07;;;;;;;17.87;65.18;102130.44;5085542;28;20024;-63
2022/06/11 05:19:54;;;;;;;13.02;4.03;;;;;;;17.89;65.13;102130.19;5106593;28;20505;-64
2022/06/11 05:22:19;;;;;;;10.52;4.20;;;;;;;17.88;64.82;102132.16;5090657;28;20035;-64
2022/06/11 05:24:45;;;;;;;9.50;3.60;;;;;;;17.91;64.72;102128.78;5085517;28;20047;-64
2022/06/11 05:27:28;;;;;;;8.32;3.55;;;;;;;17.93;64.54;102131.34;5102281;28;20053;-64
2022/06/11 05:29:59;;;;;;;15.18;3.72;;;;;;;17.93;63.36;102131.34;5101573;28;20054;-64
2022/06/11 05:32:35;;;;;;;7.03;3.28;;;;;;;17.91;63.10;102130.75;5105290;28;20073;-64
2022/06/11 05:35:03;;;;;;;13.02;3.72;;;;;;;17.93;62.85;102133.31;5102375;28;20050;-64
2022/06/11 05:37:28;;;;;;;8.77;3.33;;;;;;;17.97;62.68;102137.25;5092311;28;20041;-64
2022/06/11 05:39:54;;;;;;;17.90;3.80;;;;;;;18.06;62.31;102135.63;5091288;28;20036;-64
2022/06/11 05:42:22;;;;;;;7.28;3.15;;;;;;;18.02;61.66;102140.94;5094931;28;20077;-64
2022/06/11 05:44:51;;;;;;;13.45;3.47;;;;;;;18.03;61.24;102137.00;5098526;28;20024;-64
2022/06/11 05:47:20;;;;;;;12.23;3.15;;;;;;;18.12;61.51;102145.78;5099902;27;20035;-64
2022/06/11 05:49:51;;;;;;;7.93;3.03;;;;;;;18.24;61.16;102145.56;5093348;28;20155;-65
2022/06/11 05:52:27;;;;;;;11.20;3.00;;;;;;;18.28;60.26;102136.31;5104627;28;20028;-65
2022/06/11 05:54:54;;;;;;;11.65;3.00;;;;;;;18.36;59.90;102137.75;5103200;28;20853;-65
2022/06/11 05:57:26;;;;;;;9.65;3.17;;;;;;;18.41;59.68;102137.75;5095152;28;21848;-64
2022/06/11 05:59:54;;;;;;;;;;;;;;;18.61;61.43;102146.28;5084321;28;20123;-64
2022/06/11 06:02:22;;;;;;;14.05;3.22;;;;;;;18.51;58.98;102149.06;5103078;28;19952;-64
2022/06/11 06:04:47;;;;;;;14.57;3.10;;;;;;;18.53;58.52;102140.34;5111104;28;20044;-64
2022/06/11 06:07:12;;;;;;;15.35;3.30;;;;;;;18.57;57.63;102135.84;5100902;28;20016;-65
2022/06/11 06:09:38;;;;;;;10.35;3.03;;;;;;;18.57;57.56;102135.84;5106313;28;20081;-64
2022/06/11 06:12:05;;;;;;;10.73;2.90;;;;;;;18.52;56.36;102145.13;5098215;28;20068;-64
2022/06/11 06:14:31;;;;;;;13.27;2.92;;;;;;;18.52;57.12;102135.84;5111175;28;20020;-64
2022/06/11 06:16:59;;;;;;;14.63;3.35;;;;;;;18.59;57.62;102147.69;5099549;28;20034;-65
2022/06/11 06:19:25;;;;;;;12.52;2.88;;;;;;;18.60;57.27;102153.03;5115158;28;20027;-65
2022/06/11 06:21:50;;;;;;;15.25;3.25;;;;;;;18.62;57.30;102150.75;5099571;28;20093;-65
2022/06/11 06:24:16;;;;;;;12.65;3.50;;;;;;;18.63;57.16;102151.63;5108769;28;20050;-65
2022/06/11 06:26:41;;;;;;;12.60;3.25;;;;;;;18.72;56.96;102166.03;5086062;28;20045;-65
2022/06/11 06:29:07;;;;;;;14.20;3.40;;;;;;;18.67;56.59;102163.16;5105276;28;20036;-65
2022/06/11 06:31:32;;;;;;;12.32;2.88;;;;;;;18.71;56.62;102164.34;5104046;28;20049;-64
2022/06/11 06:34:00;;;;;;;18.23;3.75;;;;;;;18.77;56.60;102157.59;5112951;28;20028;-64
2022/06/11 06:36:27;;;;;;;12.35;3.08;;;;;;;18.83;56.78;102168.59;5080800;28;20020;-65
2022/06/11 06:38:52;;;;;;;14.02;3.20;;;;;;;18.80;56.51;102157.06;5088036;28;20370;-65
2022/06/11 06:41:19;;;;;;;16.40;3.80;;;;;;;18.87;57.27;102177.34;5103420;28;20032;-65
2022/06/11 06:43:45;;;;;;;15.15;3.15;;;;;;;18.85;56.67;102176.75;5109235;28;20114;-65
2022/06/11 06:46:14;;;;;;;13.77;3.50;;;;;;;18.84;56.91;102170.28;5097001;28;20111;-65
2022/06/11 06:48:39;;;;;;;18.23;3.47;;;;;;;18.84;56.77;102177.88;5109087;28;20772;-64
2022/06/11 06:51:05;;;;;;;13.05;3.20;;;;;;;18.86;56.79;102178.44;5102710;28;20055;-64
2022/06/11 06:53:30;;;;;;;11.95;2.90;;;;;;;18.88;56.75;102171.41;5108310;28;20115;-65
2022/06/11 06:55:56;;;;;;;18.98;3.75;;;;;;;18.83;56.52;102174.22;5106358;28;20028;-65
2022/06/11 06:58:22;;;;;;;17.63;4.05;;;;;;;18.83;56.48;102179.84;5096904;27;20035;-65
2022/06/11 07:00:48;;;;;;;14.95;3.40;;;;;;;18.82;56.49;102172.53;5107790;28;20016;-64
2022/06/11 07:03:14;;;;;;;14.57;3.10;;;;;;;18.85;56.32;102171.97;5104231;28;20042;-65
2022/06/11 07:05:40;;;;;;;18.63;3.65;;;;;;;18.84;56.77;102167.47;5098214;27;20042;-64
2022/06/11 07:08:06;;;;;;;14.48;3.50;;;;;;;18.91;56.68;102174.81;5100175;28;20120;-64
2022/06/11 07:10:33;;;;;;;18.13;4.00;;;;;;;18.99;56.26;102165.84;5113091;28;20030;-65
2022/06/11 07:12:59;;;;;;;17.90;3.65;;;;;;;19.08;56.15;102165.00;5102535;28;20547;-64
2022/06/11 07:15:25;;;;;;;21.45;4.38;;;;;;;19.16;56.08;102160.78;5095612;28;20059;-65
2022/06/11 07:18:00;;;;;;;16.45;3.63;;;;;;;19.23;56.44;102154.91;5095015;28;20232;-64
2022/06/11 07:20:30;;;;;;;14.18;3.30;;;;;;;19.25;56.24;102159.09;5094042;28;20116;-65
2022/06/11 07:23:05;;;;;;;19.58;3.83;;;;;;;19.32;57.13;102170.09;5104882;28;20024;-65
2022/06/11 07:25:31;;;;;;;17.38;4.07;;;;;;;19.44;56.73;102165.03;5081743;28;20119;-65
2022/06/11 07:28:04;;;;;;;17.83;3.83;;;;;;;19.51;56.86;102162.78;5100008;28;20163;-65
2022/06/11 07:30:34;;;;;;;25.45;4.53;;;;;;;19.50;56.33;102166.72;5075829;28;20039;-65
2022/06/11 07:33:07;;;;;;;21.83;3.97;;;;;;;19.54;56.66;102173.50;5089371;28;20126;-64
2022/06/11 07:35:35;;;;;;;19.65;3.92;;;;;;;19.55;56.34;102182.78;5101766;28;20028;-64
2022/06/11 07:38:26;;;;;;;16.00;3.65;;;;;;;19.56;56.26;102187.28;5091703;28;20027;-65
2022/06/11 07:40:51;;;;;;;14.07;3.58;;;;;;;19.61;56.65;102182.53;5101268;28;20039;-65
2022/06/11 07:43:17;;;;;;;21.23;4.40;;;;;;;19.54;56.35;102189.56;5088105;28;20040;-65
2022/06/11 07:45:45;;;;;;;22.13;4.55;;;;;;;19.54;56.67;102187.56;5087969;28;20043;-63
2022/06/11 07:48:11;;;;;;;15.60;4.13;;;;;;;19.50;56.42;102179.97;5084316;28;20472;-65
2022/06/11 07:50:43;;;;;;;15.55;4.15;;;;;;;19.54;56.67;102183.91;5086614;28;20056;-63
2022/06/11 07:53:09;;;;;;;15.63;4.15;;;;;;;19.58;56.91;102182.22;5096704;28;20088;-64
2022/06/11 07:55:37;;;;;;;16.58;3.97;;;;;;;19.59;56.83;102176.28;5085979;28;20033;-66
2022/06/11 07:58:03;;;;;;;16.35;4.03;;;;;;;19.61;56.97;102179.72;5101045;28;20028;-66
2022/06/11 08:00:32;;;;;;;18.15;4.03;;;;;;;19.51;56.68;102170.38;5093473;28;20046;-66
2022/06/11 08:02:58;;;;;;;17.45;3.83;;;;;;;19.53;56.88;102179.38;5088471;28;20423;-68
2022/06/11 08:05:23;;;;;;;16.75;4.30;;;;;;;19.57;56.68;102186.16;5061904;28;1058050;-65
2022/06/11 08:07:51;;;;;;;20.88;4.35;;;;;;;19.55;56.56;102179.97;5110318;28;20386;-67
2022/06/11 08:10:17;;;;;;;18.70;3.97;;;;;;;19.61;56.22;102191.00;5105914;28;20031;-65
2022/06/11 08:12:43;;;;;;;13.27;3.67;;;;;;;19.74;55.95;102186.75;5094890;28;20382;-65
2022/06/11 08:15:11;;;;;;;17.90;4.03;;;;;;;19.91;56.80;102194.91;5083012;28;20112;-65
2022/06/11 08:17:37;;;;;;;14.40;4.05;;;;;;;19.98;55.71;102188.97;5076606;28;20101;-65
2022/06/11 08:20:06;;;;;;;17.35;4.18;;;;;;;19.97;55.77;102198.56;5088933;28;20518;-66
2022/06/11 08:22:32;;;;;;;20.67;4.53;;;;;;;19.93;54.78;102195.47;5089924;28;20034;-66
2022/06/11 08:24:57;;;;;;;16.95;3.97;;;;;;;19.98;55.21;102203.06;5104981;28;20031;-64
2022/06/11 08:27:23;;;;;;;17.20;4.32;;;;;;;19.95;55.11;102203.63;5105505;28;20016;-66
2022/06/11 08:29:48;;;;;;;17.13;3.55;;;;;;;19.93;55.44;102198.28;5096865;28;20027;-65
2022/06/11 08:32:16;;;;;;;13.43;3.60;;;;;;;19.93;55.52;102206.75;5099129;28;20028;-66
2022/06/11 08:34:45;;;;;;;19.48;4.82;;;;;;;19.93;55.91;102209.56;5103990;28;20446;-66
2022/06/11 08:37:15;;;;;;;16.92;4.07;;;;;;;19.92;55.46;102201.38;5104336;28;20067;-65
2022/06/11 08:39:43;;;;;;;20.50;4.78;;;;;;;20.08;55.69;102206.72;5092504;28;20028;-65
2022/06/11 08:42:37;;;;;;;16.35;3.80;;;;;;;20.26;56.07;102202.44;5092551;28;20068;-66
2022/06/11 08:45:12;;;;;;;17.67;4.25;;;;;;;20.32;55.46;102209.78;5092008;28;20047;-66
2022/06/11 08:47:43;;;;;;;20.33;4.63;;;;;;;20.40;55.41;102207.50;5092750;28;20039;-65
2022/06/11 08:50:16;;;;;;;19.30;4.30;;;;;;;20.45;55.17;102199.88;5092681;28;20467;-65
2022/06/11 08:52:43;;;;;;;19.98;4.57;;;;;;;20.48;54.82;102207.75;5105233;28;20473;-66
2022/06/11 08:55:12;;;;;;;21.38;4.45;;;;;;;20.50;54.53;102213.97;5080067;28;20043;-65
2022/06/11 08:57:53;;;;;;;15.60;3.30;;;;;;;20.52;54.77;102208.06;5100141;28;20063;-65
2022/06/11 09:00:29;;;;;;;21.95;4.40;;;;;;;20.48;54.48;102199.28;5098675;28;20031;-66
2022/06/11 09:03:07;;;;;;;26.58;5.00;;;;;;;20.49;54.14;102206.66;5107536;28;20030;-65
2022/06/11 09:05:50;;;;;;;16.33;4.15;;;;;;;20.49;54.34;102205.81;5108393;28;20075;-65
2022/06/11 09:08:39;;;;;;;20.17;4.63;;;;;;;20.46;53.82;102206.34;5098959;28;20059;-65
2022/06/11 09:11:26;;;;;;;17.15;3.80;;;;;;;20.48;54.05;102206.91;5108564;28;20110;-65
2022/06/11 09:14:13;;;;;;;22.13;4.38;;;;;;;20.42;54.60;102206.06;5103108;28;20023;-65
2022/06/11 09:17:15;;;;;;;21.17;4.72;;;;;;;20.46;55.02;102203.53;5086990;28;20035;-65
2022/06/11 09:20:01;;;;;;;11.35;2.97;;;;;;;20.49;56.33;102197.34;5089409;28;20032;-66
2022/06/11 09:23:01;;;;;;;12.65;3.28;;;;;;;20.50;56.12;102204.66;5084655;28;20028;-65
2022/06/11 09:26:04;;;;;;;19.30;4.20;;;;;;;20.49;55.01;102201.00;5087598;28;20039;-66
2022/06/11 09:28:39;;;;;;;13.65;3.10;;;;;;;20.47;56.13;102208.03;5082427;28;20039;-67
2022/06/11 09:31:27;;;;;;;12.98;2.63;;;;;;;20.54;55.97;102205.78;5100019;28;20024;-67
2022/06/11 09:34:15;;;;;;;18.10;3.70;;;;;;;20.55;55.22;102204.63;5098116;28;20506;-65
2022/06/11 09:36:48;;;;;;;13.65;3.83;;;;;;;20.68;55.55;102197.56;5108091;28;20064;-66
2022/06/11 09:39:25;;;;;;;20.42;4.07;;;;;;;20.73;54.91;102211.63;5080149;28;20058;-67
2022/06/11 09:42:12;;;;;;;15.40;4.03;;;;;;;20.87;54.30;102206.19;5085139;28;20068;-68
2022/06/11 09:45:16;;;;;;;17.92;3.75;;;;;;;21.01;54.79;102201.63;5085391;28;20040;-67
2022/06/11 09:48:08;;;;;;;13.98;3.80;;;;;;;21.16;54.19;102198.69;5074700;28;20090;-67
2022/06/11 09:50:40;;;;;;;17.70;4.20;;;;;;;21.29;53.66;102203.69;5086630;28;20029;-66
2022/06/11 09:53:35;;;;;;;16.92;4.53;;;;;;;21.40;53.17;102187.53;5086257;28;20017;-67
2022/06/11 09:56:37;;;;;;;16.85;4.15;;;;;;;21.49;51.81;102201.88;5076107;28;20031;-67
2022/06/11 09:59:17;;;;;;;14.02;3.83;;;;;;;21.60;50.00;102195.00;5080936;28;20072;-65
2022/06/11 10:01:48;;;;;;;15.15;3.15;;;;;;;21.68;48.40;102193.53;5077837;28;20028;-65
2022/06/11 10:04:18;;;;;;;15.30;2.90;;;;;;;21.73;47.20;102191.53;5085862;28;20494;-65
2022/06/11 10:06:50;;;;;;;13.27;3.10;;;;;;;21.85;47.05;102190.28;5095254;28;20039;-68
2022/06/11 10:09:21;;;;;;;15.40;3.45;;;;;;;21.88;46.57;102192.50;5092477;28;20031;-70
2022/06/11 10:11:49;;;;;;;11.55;2.90;;;;;;;21.94;46.60;102197.00;5080266;28;20028;-65
2022/06/11 10:14:29;;;;;;;19.55;3.75;;;;;;;21.91;47.20;102200.41;5088588;28;20032;-66
2022/06/11 10:17:17;;;;;;;14.00;3.08;;;;;;;21.91;47.63;102192.75;5085695;28;20162;-64
2022/06/11 10:19:54;;;;;;;15.50;2.70;;;;;;;22.02;48.36;102197.19;5097201;28;20036;-65
2022/06/11 10:22:25;;;;;;;16.00;3.72;;;;;;;22.02;47.76;102193.50;5089239;28;20028;-65
2022/06/11 10:25:11;;;;;;;16.70;3.60;;;;;;;22.04;49.02;102197.69;5091845;28;20403;-64
2022/06/11 10:27:45;;;;;;;13.80;3.42;;;;;;;22.11;47.88;102193.69;5095050;28;20070;-65
2022/06/11 10:30:29;;;;;;;18.17;3.72;;;;;;;22.18;47.65;102211.19;5102568;28;20364;-64
2022/06/11 10:32:57;;;;;;;17.23;3.60;;;;;;;22.23;46.88;102197.81;5093941;28;20108;-66
2022/06/11 10:35:29;;;;;;;11.57;2.90;;;;;;;22.25;47.34;102209.69;5093563;28;20123;-65
2022/06/11 10:38:21;;;;;;;12.93;3.00;;;;;;;22.30;46.62;102206.81;5090775;28;20024;-66
2022/06/11 10:40:49;;;;;;;12.23;3.08;;;;;;;22.28;45.08;102196.91;5091630;28;20479;-66
2022/06/11 10:43:28;;;;;;;11.68;2.97;;;;;;;22.38;47.15;102196.81;5093551;28;20077;-66
2022/06/11 10:45:53;;;;;;;13.68;3.03;;;;;;;22.41;45.41;102201.03;5087548;28;20044;-66
2022/06/11 10:48:23;;;;;;;14.93;3.72;;;;;;;22.45;46.51;102200.13;5080360;28;20538;-66
2022/06/11 10:50:52;;;;;;;15.68;3.33;;;;;;;22.49;46.86;102197.56;5087866;28;20034;-68
2022/06/11 10:53:20;;;;;;;16.92;3.42;;;;;;;22.60;45.92;102203.91;5091627;28;20019;-69
2022/06/11 10:55:51;;;;;;;14.43;3.50;;;;;;;22.65;47.24;102199.03;5093593;28;20455;-68
2022/06/11 10:58:28;;;;;;;11.77;3.25;;;;;;;22.63;46.72;102195.66;5077176;28;20027;-70
2022/06/11 11:00:58;;;;;;;16.95;3.95;;;;;;;22.62;46.85;102191.16;5101260;28;20510;-70
2022/06/11 11:03:33;;;;;;;14.23;3.22;;;;;;;22.67;46.98;102193.91;5082502;28;20074;-69
2022/06/11 11:06:02;;;;;;;17.60;4.00;;;;;;;22.72;47.52;102199.53;5074519;28;20037;-68
2022/06/11 11:08:27;;;;;;;16.48;4.28;;;;;;;22.82;47.55;102189.19;5082498;28;20063;-67
2022/06/11 11:10:55;;;;;;;10.82;3.45;;;;;;;22.81;46.25;102185.53;5096617;28;20483;-67
2022/06/11 11:13:25;;;;;;;13.15;3.53;;;;;;;22.81;46.05;102182.69;5105297;28;20043;-70
2022/06/11 11:16:08;;;;;;;15.63;3.70;;;;;;;22.90;48.24;102183.69;5090348;28;20163;-66
2022/06/11 11:19:15;;;;;;;18.58;4.03;;;;;;;22.96;47.73;102184.53;5085424;28;20028;-70
2022/06/11 11:21:57;;;;;;;15.23;3.50;;;;;;;23.01;47.10;102184.44;5096975;28;20085;-71
2022/06/11 11:24:29;;;;;;;17.80;4.40;;;;;;;23.07;47.00;102179.53;5102948;28;20032;-67
2022/06/11 11:27:00;;;;;;;14.20;3.70;;;;;;;23.10;46.69;102176.94;5091567;28;20127;-66
2022/06/11 11:29:25;;;;;;;17.70;4.43;;;;;;;23.12;47.51;102180.31;5096612;28;20086;-67
2022/06/11 11:32:04;;;;;;;17.63;4.13;;;;;;;23.13;48.07;102183.97;5100004;28;20800;-65
2022/06/11 11:34:54;;;;;;;12.38;3.63;;;;;;;23.07;46.57;102174.72;5107414;28;20457;-66
2022/06/11 11:37:20;;;;;;;17.88;4.00;;;;;;;23.05;46.52;102179.84;5086782;28;20071;-66
2022/06/11 11:39:55;;;;;;;16.30;3.95;;;;;;;22.94;46.27;102172.63;5095634;28;20062;-72
2022/06/11 11:42:25;;;;;;;14.02;3.80;;;;;;;22.91;46.55;102178.91;5085729;28;20063;-68
2022/06/11 11:44:57;;;;;;;14.65;3.60;;;;;;;22.99;46.58;102172.56;5087501;28;20073;-68